x

Cape Lookout, Nc (clkn7) Weather Station

11:00pm - Sat 24th Sep 2016 All times are EDT. -4 hours from GMT.

  • Wind
    8mph
  • Air Temp 80°f
  • Sea Pressure 1017.2mb
  • Cape Lookout, Nc
  • Cape Lookout, Nc

More Historic Weather Station data

Upgrade to MSW Pro to gain access to the past 30 days of data for over 8000 Wavebouys and Weather Stations around the globe.

Join Pro

Comparision Forecast

View Surf forecast
   
Sat 09/24 11:00pm 8
mph
1017.2mb 80f
10:00pm 7
mph
1017.1mb 80f
9:00pm 8 9 mph 1016.7mb 80f
8:00pm 8 9 mph 1016.1mb 80f
7:00pm 9
mph
1016mb 80f
6:00pm 9 10 mph 1016mb 81f
5:00pm 10 13 mph 1015.8mb 80f
4:00pm 7 8 mph 1015.6mb 79f
3:00pm 7 8 mph 1015.8mb 79f
2:00pm 7 8 mph 1015.9mb 79f
1:00pm 7 8 mph 1016.7mb 80f
12:00pm 10 15 mph 1016.9mb 81f
11:00am 11 14 mph 1016.9mb 79f
10:00am 13 14 mph 1017mb 78f
9:00am 10 14 mph 1016.8mb 78f
8:00am 9 10 mph 1016.3mb 77f
7:00am 9 10 mph 1016.1mb 75f
6:00am 7 8 mph 1015.3mb 76f
5:00am 8 9 mph 1014.9mb 76f
4:00am 8 9 mph 1014.9mb 76f
3:00am 11 13 mph 1015.2mb 78f
2:00am 13 14 mph 1015.4mb 78f
1:00am 11 13 mph 1015.5mb 78f
12:00am 14 15 mph 1015.6mb 78f
Fri 09/23 11:00pm 10 11 mph 1015.2mb 79f
10:00pm 13 15 mph 1015.1mb 79f
9:00pm 13 14 mph 1015mb 79f
8:00pm 13 15 mph 1014.7mb 80f
7:00pm 16 17 mph 1014.8mb 80f
6:00pm 14 15 mph 1014.4mb 80f
5:00pm 11 13 mph 1014.1mb 80f
4:00pm 11 13 mph 1014.2mb 80f
3:00pm 11 14 mph 1014.3mb 80f
2:00pm 8 10 mph 1014.8mb 80f
1:00pm 10 11 mph 1015.3mb 80f
12:00pm 9
mph
1015.9mb 79f
11:00am 11 13 mph 1016mb 79f
10:00am 11 13 mph 1016.4mb 79f
9:00am 10 11 mph 1016.2mb 79f
8:00am 8 9 mph 1015.7mb 78f
7:00am 11
mph
1015.7mb 77f
6:00am 6 7 mph 1015.2mb 76f
5:00am 10 13 mph 1015mb 76f
4:00am 8 9 mph 1014.8mb 77f
3:00am 1 2 mph 1014.7mb 79f
2:00am 9 10 mph 1014.9mb 79f
1:00am 7 8 mph 1015.3mb 79f
12:00am 9 11 mph 1015.5mb 80f
Thu 09/22 11:00pm 10 11 mph 1015.6mb 80f
10:00pm 13 15 mph 1015.4mb 80f
9:00pm 13 14 mph 1015.4mb 80f
8:00pm 10 11 mph 1015.1mb 80f
7:00pm 8
mph
1014.8mb 80f
6:00pm 9 11 mph 1014.7mb 80f
5:00pm 11
mph
1014.5mb 81f
4:00pm 9 10 mph 1014.6mb 81f
3:00pm 8 9 mph 1015.1mb 80f
2:00pm 9 10 mph 1015.5mb 80f
1:00pm 8 9 mph 1016.1mb 81f
12:00pm 5 6 mph 1016.2mb 80f
11:00am 6 7 mph 1016.6mb 80f
10:00am 10 11 mph 1016.3mb 80f
9:00am 10
mph
1016.4mb 80f
8:00am 6 7 mph 1015.9mb 80f
7:00am 7 8 mph 1015.3mb 79f
6:00am 7 8 mph 1014.9mb 79f
5:00am 6
mph
1014.7mb 79f
4:00am 5 6 mph 1014.5mb 79f
3:00am 5 6 mph 1014.9mb 79f
2:00am 3 5 mph 1015mb 79f
1:00am 7 8 mph 1015.2mb 79f
12:00am 9
mph
1015.3mb 79f
Wed 09/21 11:00pm 11
mph
1015.5mb 80f
10:00pm 6 7 mph 1015.1mb 80f
9:00pm 8 9 mph 1015mb 80f
8:00pm 3 5 mph 1014.6mb 80f
7:00pm 2 3 mph 1014.6mb 80f
6:00pm 3 5 mph 1014.2mb 80f
5:00pm 3 6 mph 1013.9mb 80f
4:00pm 5 6 mph 1013.5mb 80f
3:00pm 5 6 mph 1014mb 80f
2:00pm 5
mph
1014.5mb 81f
1:00pm 5 6 mph 1014.4mb 80f
12:00pm 3 5 mph 1014.7mb 78f
11:00am 3 5 mph 1014.8mb 78f
10:00am 3 5 mph 1014.5mb 79f
9:00am 3 5 mph 1014.2mb 80f
8:00am 2 3 mph 1013.7mb 77f
7:00am 5 6 mph 1013.1mb 77f
6:00am 5
mph
1012.7mb 76f
5:00am 3
mph
1012.4mb 76f